createdAt,value
2018-01-30T00:02:21.325Z,0.70
2018-01-30T00:04:48.828Z,0.70
2018-01-30T00:07:16.359Z,0.60
2018-01-30T00:09:43.852Z,0.60
2018-01-30T00:12:11.381Z,0.68
2018-01-30T00:14:38.894Z,0.70
2018-01-30T00:17:07.171Z,0.70
2018-01-30T00:19:34.681Z,0.88
2018-01-30T00:22:02.201Z,0.60
2018-01-30T00:24:29.696Z,0.77
2018-01-30T00:26:57.213Z,0.65
2018-01-30T00:29:24.747Z,0.80
2018-01-30T00:31:52.247Z,0.60
2018-01-30T00:34:19.782Z,0.68
2018-01-30T00:36:47.285Z,0.70
2018-01-30T00:39:14.810Z,0.75
2018-01-30T00:41:42.325Z,0.70
2018-01-30T00:44:12.066Z,0.70
2018-01-30T00:46:40.217Z,0.65
2018-01-30T00:49:15.407Z,0.62
2018-01-30T00:51:43.558Z,0.50
2018-01-30T00:54:11.051Z,0.80
2018-01-30T00:56:38.562Z,0.70
2018-01-30T00:59:06.063Z,0.70
2018-01-30T01:01:33.624Z,0.50
2018-01-30T01:04:02.563Z,0.70
2018-01-30T01:06:35.134Z,0.50
2018-01-30T01:09:05.549Z,0.60
2018-01-30T01:11:35.586Z,0.60
2018-01-30T01:14:07.930Z,0.70
2018-01-30T01:16:39.688Z,0.60
2018-01-30T01:19:21.046Z,0.60
2018-01-30T01:21:51.476Z,0.77
2018-01-30T01:24:19.045Z,0.65
2018-01-30T01:26:46.541Z,0.80
2018-01-30T01:29:20.538Z,0.60
2018-01-30T01:31:48.135Z,0.65
2018-01-30T01:34:15.648Z,0.68
2018-01-30T01:36:43.146Z,0.68
2018-01-30T01:39:11.486Z,0.70
2018-01-30T01:41:38.964Z,0.70
2018-01-30T01:44:09.207Z,0.70
2018-01-30T01:46:37.491Z,0.70
2018-01-30T01:49:04.984Z,0.85
2018-01-30T01:51:32.508Z,0.70
2018-01-30T01:54:00.072Z,0.60
2018-01-30T01:56:27.582Z,0.60
2018-01-30T01:58:56.066Z,0.70
2018-01-30T02:01:23.568Z,0.70
2018-01-30T02:03:51.838Z,0.80
2018-01-30T02:06:20.104Z,0.80
2018-01-30T02:08:49.407Z,0.70
2018-01-30T02:11:17.665Z,0.73
2018-01-30T02:13:45.186Z,0.80
2018-01-30T02:16:12.681Z,0.85
2018-01-30T02:18:40.171Z,0.90
2018-01-30T02:21:09.457Z,0.90
2018-01-30T02:23:37.715Z,0.68
2018-01-30T02:26:05.247Z,0.88
2018-01-30T02:28:36.314Z,0.70
2018-01-30T02:31:03.845Z,0.80
2018-01-30T02:33:31.349Z,0.70
2018-01-30T02:35:58.845Z,0.70
2018-01-30T02:38:26.386Z,0.70
2018-01-30T02:40:54.666Z,0.70
2018-01-30T02:43:22.955Z,0.70
2018-01-30T02:45:50.449Z,0.70
2018-01-30T02:48:18.986Z,0.80
2018-01-30T02:50:47.248Z,0.70
2018-01-30T02:53:15.532Z,0.85
2018-01-30T02:55:43.838Z,0.80
2018-01-30T02:58:11.340Z,0.70
2018-01-30T03:00:40.877Z,0.77
2018-01-30T03:03:19.666Z,0.70
2018-01-30T03:05:47.237Z,0.68
2018-01-30T03:08:14.742Z,0.60
2018-01-30T03:10:42.268Z,0.80
2018-01-30T03:13:09.779Z,0.60
2018-01-30T03:15:37.287Z,0.70
2018-01-30T03:18:04.776Z,0.70
2018-01-30T03:20:32.288Z,0.73
2018-01-30T03:22:59.791Z,0.70
2018-01-30T03:25:28.072Z,0.73
2018-01-30T03:27:55.564Z,1.00
2018-01-30T03:30:23.116Z,0.70
2018-01-30T03:32:50.610Z,0.70
2018-01-30T03:35:18.119Z,0.80
2018-01-30T03:37:45.612Z,0.70
2018-01-30T03:40:13.144Z,0.80
2018-01-30T03:42:41.409Z,0.70
2018-01-30T03:45:08.931Z,0.80
2018-01-30T03:47:36.432Z,0.80
2018-01-30T03:50:03.954Z,0.98
2018-01-30T03:52:31.447Z,0.60
2018-01-30T03:54:58.975Z,0.80
2018-01-30T03:57:26.492Z,1.00
2018-01-30T03:59:54.023Z,0.75
2018-01-30T04:02:21.523Z,1.10
2018-01-30T04:04:49.040Z,0.95
2018-01-30T04:07:16.541Z,1.17
2018-01-30T04:09:44.052Z,0.80
2018-01-30T04:12:12.320Z,1.10
2018-01-30T04:14:39.865Z,0.70
2018-01-30T04:17:07.359Z,0.98
2018-01-30T04:19:34.876Z,0.90
2018-01-30T04:22:02.388Z,1.20
2018-01-30T04:24:29.904Z,0.80
2018-01-30T04:26:57.394Z,0.82
2018-01-30T04:29:24.895Z,1.02
2018-01-30T04:31:52.371Z,0.88
2018-01-30T04:34:19.879Z,1.15
2018-01-30T04:36:47.583Z,0.88
2018-01-30T04:39:15.321Z,1.00
2018-01-30T04:41:42.807Z,1.08
2018-01-30T04:44:10.320Z,1.10
2018-01-30T04:46:37.839Z,1.00
2018-01-30T04:49:05.364Z,1.20
2018-01-30T04:51:32.883Z,1.50
2018-01-30T04:54:01.157Z,1.20
2018-01-30T04:56:29.424Z,1.42
2018-01-30T04:58:56.944Z,1.65
2018-01-30T05:01:24.504Z,2.42
2018-01-30T05:03:52.012Z,2.70
2018-01-30T05:06:20.292Z,4.32
2018-01-30T05:08:49.406Z,2.75
2018-01-30T05:11:16.891Z,1.50
2018-01-30T05:13:44.400Z,1.83
2018-01-30T05:16:11.896Z,1.70
2018-01-30T05:18:39.419Z,2.05
2018-01-30T05:21:07.684Z,1.73
2018-01-30T05:23:35.213Z,1.40
2018-01-30T05:26:02.718Z,1.45
2018-01-30T05:28:31.010Z,1.33
2018-01-30T05:30:59.280Z,1.30
2018-01-30T05:33:27.681Z,1.25
2018-01-30T05:35:55.555Z,1.37
2018-01-30T05:38:23.065Z,1.27
2018-01-30T05:40:54.385Z,1.20
2018-01-30T05:43:21.919Z,1.00
2018-01-30T05:45:49.437Z,1.17
2018-01-30T05:48:16.968Z,1.42
2018-01-30T05:50:44.512Z,1.60
2018-01-30T05:53:12.025Z,2.03
2018-01-30T05:55:39.556Z,1.98
2018-01-30T05:58:07.926Z,1.70
2018-01-30T06:00:35.433Z,2.87
2018-01-30T06:03:03.730Z,5.18
2018-01-30T06:05:32.236Z,4.80
2018-01-30T06:07:59.772Z,5.32
2018-01-30T06:10:27.287Z,4.45
2018-01-30T06:12:54.805Z,3.53
2018-01-30T06:15:22.303Z,5.10
2018-01-30T06:17:49.848Z,6.15
2018-01-30T06:20:17.374Z,1.17
2018-01-30T06:22:44.943Z,1.40
2018-01-30T06:25:12.501Z,1.40
2018-01-30T06:27:40.060Z,1.30
2018-01-30T06:30:08.537Z,1.85
2018-01-30T06:32:36.043Z,1.42
2018-01-30T06:35:03.597Z,1.90
2018-01-30T06:37:31.123Z,1.40
2018-01-30T06:40:02.568Z,2.17
2018-01-30T06:42:30.111Z,2.08
2018-01-30T06:44:58.397Z,2.30
2018-01-30T06:47:26.680Z,2.05
2018-01-30T06:49:54.200Z,2.42
2018-01-30T06:52:21.701Z,2.37
2018-01-30T06:54:49.246Z,2.55
2018-01-30T06:57:17.516Z,2.70
2018-01-30T06:59:45.797Z,3.15
2018-01-30T07:02:14.093Z,2.90
2018-01-30T07:04:41.826Z,3.00
2018-01-30T07:07:09.342Z,3.17
2018-01-30T07:09:36.925Z,2.40
2018-01-30T07:12:11.404Z,2.78
2018-01-30T07:14:39.460Z,3.15
2018-01-30T07:17:07.752Z,2.87
2018-01-30T07:19:37.929Z,3.30
2018-01-30T07:22:05.453Z,3.62
2018-01-30T07:24:32.996Z,3.95
2018-01-30T07:27:00.597Z,4.72
2018-01-30T07:29:28.816Z,4.53
2018-01-30T07:32:03.362Z,4.05
2018-01-30T07:34:31.184Z,5.20
2018-01-30T07:36:59.952Z,6.28
2018-01-30T07:39:28.071Z,6.40
2018-01-30T07:41:55.757Z,7.07
2018-01-30T07:44:23.651Z,6.90
2018-01-30T07:46:51.570Z,7.82
2018-01-30T07:49:20.351Z,7.32
2018-01-30T07:51:48.006Z,7.20
2018-01-30T07:54:16.368Z,7.20
2018-01-30T07:56:43.915Z,7.20
2018-01-30T07:59:11.413Z,7.68
2018-01-30T08:01:38.929Z,9.45
2018-01-30T08:04:06.469Z,6.72
2018-01-30T08:06:33.977Z,6.95
2018-01-30T08:09:01.496Z,6.40
2018-01-30T08:11:29.004Z,6.50
2018-01-30T08:13:57.303Z,6.30
2018-01-30T08:16:24.823Z,5.47
2018-01-30T08:18:54.253Z,5.95
2018-01-30T08:21:22.557Z,5.70
2018-01-30T08:23:50.071Z,4.90
2018-01-30T08:26:17.617Z,6.10
2018-01-30T08:28:46.048Z,5.50
2018-01-30T08:31:13.592Z,5.82
2018-01-30T08:33:41.950Z,6.68
2018-01-30T08:36:10.872Z,5.85
2018-01-30T08:41:33.374Z,5.37
2018-01-30T08:44:14.657Z,5.90
2018-01-30T08:46:43.005Z,6.60
2018-01-30T08:49:16.297Z,6.10
2018-01-30T08:51:43.994Z,6.28
2018-01-30T08:54:11.612Z,5.28
2018-01-30T08:56:39.875Z,4.85
2018-01-30T08:59:08.188Z,4.82
2018-01-30T09:01:38.257Z,4.85
2018-01-30T09:04:05.794Z,4.20
2018-01-30T09:06:33.292Z,4.95
2018-01-30T09:09:00.813Z,5.25
2018-01-30T09:11:28.324Z,5.12
2018-01-30T09:13:56.607Z,4.53
2018-01-30T09:16:24.873Z,4.97
2018-01-30T09:18:53.162Z,4.78
2018-01-30T09:21:21.420Z,4.30
2018-01-30T09:23:48.909Z,5.37
2018-01-30T09:26:16.428Z,5.65
2018-01-30T09:28:43.952Z,5.70
2018-01-30T09:31:12.245Z,6.28
2018-01-30T09:33:39.747Z,6.80
2018-01-30T09:36:08.026Z,5.60
2018-01-30T09:38:36.291Z,6.50
2018-01-30T09:41:03.788Z,5.90
2018-01-30T09:43:31.296Z,5.93
2018-01-30T09:45:58.788Z,5.75
2018-01-30T09:48:27.072Z,5.60
2018-01-30T09:50:54.596Z,5.90
2018-01-30T09:53:22.132Z,5.80
2018-01-30T09:55:49.628Z,5.90
2018-01-30T09:58:17.890Z,5.10
2018-01-30T10:00:45.401Z,6.25
2018-01-30T10:03:12.908Z,6.70
2018-01-30T10:05:40.437Z,7.50
2018-01-30T10:08:07.931Z,8.40
2018-01-30T10:10:35.453Z,8.65
2018-01-30T10:13:02.957Z,8.15
2018-01-30T10:15:30.464Z,7.55
2018-01-30T10:17:57.994Z,8.00
2018-01-30T10:20:26.264Z,8.10
2018-01-30T10:22:54.557Z,8.32
2018-01-30T10:25:22.053Z,10.00
2018-01-30T10:27:49.577Z,9.35
2018-01-30T10:30:17.090Z,9.20
2018-01-30T10:32:44.597Z,8.38
2018-01-30T10:35:12.123Z,7.85
2018-01-30T10:37:39.632Z,7.25
2018-01-30T10:40:07.176Z,6.22
2018-01-30T10:42:34.697Z,6.60
2018-01-30T10:45:02.213Z,6.25
2018-01-30T10:47:30.232Z,7.87
2018-01-30T10:49:57.761Z,8.13
2018-01-30T10:52:25.268Z,7.57
2018-01-30T10:54:53.541Z,8.20
2018-01-30T10:57:21.820Z,8.32
2018-01-30T10:59:50.281Z,7.40
2018-01-30T11:02:17.796Z,7.47
2018-01-30T11:04:45.312Z,7.40
2018-01-30T11:07:13.615Z,7.70
2018-01-30T11:09:41.139Z,5.40
2018-01-30T11:12:08.645Z,6.55
2018-01-30T11:14:36.180Z,5.35
2018-01-30T11:17:04.451Z,5.50
2018-01-30T11:19:32.749Z,5.40
2018-01-30T11:22:00.276Z,8.05
2018-01-30T11:24:27.830Z,9.45
2018-01-30T11:26:55.336Z,9.07
2018-01-30T11:29:22.852Z,5.07
2018-01-30T11:31:50.372Z,4.47
2018-01-30T11:34:17.929Z,4.70
2018-01-30T11:36:45.444Z,5.50
2018-01-30T11:39:13.714Z,4.22
2018-01-30T11:41:41.244Z,3.70
2018-01-30T11:44:08.744Z,3.78
2018-01-30T11:46:37.026Z,12.10
2018-01-30T11:49:05.308Z,13.32
2018-01-30T11:51:33.582Z,13.62
2018-01-30T11:54:01.880Z,13.73
2018-01-30T11:56:29.392Z,11.80
2018-01-30T11:58:56.922Z,13.43
2018-01-30T12:01:24.427Z,12.25
2018-01-30T12:03:51.940Z,9.90
2018-01-30T12:06:19.468Z,3.97
2018-01-30T12:08:47.109Z,3.85
2018-01-30T12:11:14.633Z,3.12
2018-01-30T12:13:42.152Z,2.95
2018-01-30T12:16:09.681Z,2.87
2018-01-30T12:18:37.172Z,3.30
2018-01-30T12:21:04.673Z,2.85
2018-01-30T12:23:32.225Z,3.47
2018-01-30T12:25:59.719Z,2.95
2018-01-30T12:28:27.246Z,3.20
2018-01-30T12:30:54.768Z,3.22
2018-01-30T12:33:22.311Z,3.05
2018-01-30T12:35:50.576Z,2.95
2018-01-30T12:38:18.075Z,3.08
2018-01-30T12:40:45.661Z,3.40
2018-01-30T12:43:13.172Z,13.07
2018-01-30T12:45:41.468Z,12.65
2018-01-30T12:48:08.971Z,12.73
2018-01-30T12:50:36.505Z,12.07
2018-01-30T12:53:04.013Z,13.25
2018-01-30T12:55:31.512Z,11.95
2018-01-30T12:57:59.049Z,11.52
2018-01-30T13:00:27.323Z,12.32
2018-01-30T13:02:55.629Z,12.48
2018-01-30T13:05:23.132Z,12.10
2018-01-30T13:07:50.661Z,13.57
2018-01-30T13:10:18.170Z,13.25
2018-01-30T13:12:46.460Z,12.65
2018-01-30T13:15:14.739Z,12.30
2018-01-30T13:17:42.244Z,11.27
2018-01-30T13:20:09.764Z,10.93
2018-01-30T13:22:38.110Z,11.90
2018-01-30T13:25:05.632Z,13.00
2018-01-30T13:27:33.132Z,11.68
2018-01-30T13:30:00.661Z,12.07
2018-01-30T13:32:28.160Z,10.40
2018-01-30T13:34:55.679Z,10.05
2018-01-30T13:37:23.163Z,10.52
2018-01-30T13:39:50.665Z,10.05
2018-01-30T13:42:18.189Z,9.23
2018-01-30T13:44:45.717Z,10.50
2018-01-30T13:47:13.240Z,12.05
2018-01-30T13:49:41.558Z,9.98
2018-01-30T13:52:09.790Z,11.12
2018-01-30T13:54:38.056Z,11.15
2018-01-30T13:57:05.608Z,10.93
2018-01-30T13:59:33.116Z,10.30
2018-01-30T14:02:00.674Z,9.73
2018-01-30T14:04:28.205Z,9.20
2018-01-30T14:06:56.488Z,9.75
2018-01-30T14:09:24.764Z,9.43
2018-01-30T14:11:53.021Z,9.70
2018-01-30T14:14:20.545Z,11.70
2018-01-30T14:16:48.053Z,11.45
2018-01-30T14:19:16.344Z,10.68
2018-01-30T14:21:44.605Z,11.93
2018-01-30T14:24:12.882Z,11.52
2018-01-30T14:26:41.180Z,11.73
2018-01-30T14:29:08.675Z,13.18
2018-01-30T14:31:36.201Z,11.43
2018-01-30T14:34:03.704Z,12.13
2018-01-30T14:36:31.224Z,12.60
2018-01-30T14:38:58.737Z,13.30
2018-01-30T14:41:26.269Z,13.20
2018-01-30T14:43:53.772Z,13.13
2018-01-30T14:46:22.048Z,11.52
2018-01-30T14:48:49.566Z,11.40
2018-01-30T14:51:17.057Z,10.73
2018-01-30T14:53:44.575Z,9.98
2018-01-30T14:56:12.077Z,10.50
2018-01-30T14:58:39.601Z,9.40
2018-01-30T15:01:07.100Z,9.60
2018-01-30T15:03:34.633Z,10.00
2018-01-30T15:06:02.129Z,8.00
2018-01-30T15:08:30.405Z,7.47
2018-01-30T15:10:58.709Z,6.40
2018-01-30T15:13:26.204Z,6.12
2018-01-30T15:15:53.849Z,5.20
2018-01-30T15:18:21.339Z,5.82
2018-01-30T15:20:48.864Z,6.30
2018-01-30T15:23:16.360Z,5.20
2018-01-30T15:25:43.872Z,5.65
2018-01-30T15:28:11.370Z,7.05
2018-01-30T15:30:38.864Z,5.15
2018-01-30T15:33:07.144Z,6.12
2018-01-30T15:35:35.399Z,5.40
2018-01-30T15:38:02.924Z,5.65
2018-01-30T15:40:30.415Z,4.18
2018-01-30T15:42:57.935Z,4.80
2018-01-30T15:45:25.425Z,5.32
2018-01-30T15:47:53.421Z,5.12
2018-01-30T15:50:20.908Z,4.90
2018-01-30T15:52:48.404Z,4.65
2018-01-30T15:55:15.936Z,4.60
2018-01-30T15:57:43.431Z,5.30
2018-01-30T16:00:10.961Z,6.15
2018-01-30T16:02:38.456Z,4.90
2018-01-30T16:05:05.968Z,6.43
2018-01-30T16:07:33.484Z,4.95
2018-01-30T16:10:00.987Z,5.28
2018-01-30T16:12:28.509Z,5.60
2018-01-30T16:14:55.996Z,5.55
2018-01-30T16:17:23.513Z,5.30
2018-01-30T16:19:51.012Z,5.87
2018-01-30T16:22:18.719Z,5.57
2018-01-30T16:24:46.124Z,5.55
2018-01-30T16:27:14.401Z,5.85
2018-01-30T16:29:42.684Z,6.40
2018-01-30T16:32:10.939Z,6.15
2018-01-30T16:34:38.444Z,6.55
2018-01-30T16:37:05.936Z,6.57
2018-01-30T16:39:33.451Z,6.20
2018-01-30T16:42:00.950Z,5.85
2018-01-30T16:44:28.470Z,6.75
2018-01-30T16:46:55.976Z,6.90
2018-01-30T16:49:23.502Z,6.40
2018-01-30T16:51:51.031Z,8.10
2018-01-30T16:54:19.287Z,6.90
2018-01-30T16:56:46.849Z,8.20
2018-01-30T16:59:14.344Z,8.38
2018-01-30T17:01:41.856Z,9.65
2018-01-30T17:04:09.349Z,8.40
2018-01-30T17:06:36.852Z,7.55
2018-01-30T17:09:04.372Z,7.47
2018-01-30T17:11:31.880Z,6.50
2018-01-30T17:13:59.412Z,8.05
2018-01-30T17:16:26.912Z,7.45
2018-01-30T17:18:54.430Z,8.43
2018-01-30T17:21:21.927Z,7.12
2018-01-30T17:23:49.428Z,7.53
2018-01-30T17:26:16.952Z,7.03
2018-01-30T17:28:44.453Z,7.93
2018-01-30T17:31:12.001Z,8.82
2018-01-30T17:33:39.872Z,15.82
2018-01-30T17:36:08.193Z,31.08
2018-01-30T17:38:35.688Z,28.52
2018-01-30T17:41:03.188Z,9.32
2018-01-30T17:43:31.671Z,7.43
2018-01-30T17:45:59.189Z,7.20
2018-01-30T17:48:26.717Z,7.53
2018-01-30T17:50:54.212Z,9.60
2018-01-30T17:53:21.723Z,8.48
2018-01-30T17:55:49.220Z,5.62
2018-01-30T17:58:16.712Z,6.87
2018-01-30T18:00:44.229Z,7.45
2018-01-30T18:03:11.724Z,6.80
2018-01-30T18:05:40.022Z,8.00
2018-01-30T18:08:07.601Z,10.15
2018-01-30T18:10:35.114Z,9.35
2018-01-30T18:13:03.384Z,11.00
2018-01-30T18:15:30.872Z,8.82
2018-01-30T18:17:58.387Z,10.85
2018-01-30T18:20:25.881Z,8.15
2018-01-30T18:22:54.082Z,8.40
2018-01-30T18:25:21.636Z,8.48
2018-01-30T18:27:49.162Z,11.07
2018-01-30T18:30:16.680Z,10.52
2018-01-30T18:32:44.184Z,9.70
2018-01-30T18:35:12.492Z,11.18
2018-01-30T18:37:40.405Z,10.80
2018-01-30T18:40:07.925Z,11.77
2018-01-30T18:42:35.427Z,10.18
2018-01-30T18:45:02.987Z,10.77
2018-01-30T18:47:30.489Z,9.90
2018-01-30T18:49:58.016Z,10.48
2018-01-30T18:52:25.513Z,11.38
2018-01-30T18:54:53.048Z,10.73
2018-01-30T18:57:20.559Z,10.35
2018-01-30T18:59:48.618Z,9.23
2018-01-30T19:02:16.127Z,9.52
2018-01-30T19:04:44.383Z,8.05
2018-01-30T19:07:11.912Z,7.35
2018-01-30T19:09:39.415Z,5.57
2018-01-30T19:12:06.910Z,5.68
2018-01-30T19:14:34.426Z,5.75
2018-01-30T19:17:01.924Z,5.80
2018-01-30T19:19:29.444Z,6.30
2018-01-30T19:21:56.952Z,6.05
2018-01-30T19:24:24.463Z,5.80
2018-01-30T19:26:52.516Z,5.57
2018-01-30T19:29:20.033Z,5.90
2018-01-30T19:31:48.415Z,5.50
2018-01-30T19:34:15.947Z,5.85
2018-01-30T19:36:43.472Z,6.20
2018-01-30T19:39:11.108Z,6.43
2018-01-30T19:41:38.635Z,7.05
2018-01-30T19:44:06.909Z,8.50
2018-01-30T19:46:34.637Z,11.10
2018-01-30T19:49:02.146Z,9.85
2018-01-30T19:51:30.401Z,8.00
2018-01-30T19:53:58.103Z,10.85
2018-01-30T19:56:25.608Z,9.90
2018-01-30T19:58:53.128Z,9.35
2018-01-30T20:01:20.645Z,8.18
2018-01-30T20:03:48.155Z,9.95
2018-01-30T20:06:16.145Z,9.95
2018-01-30T20:08:46.929Z,10.18
2018-01-30T20:11:15.200Z,14.02
2018-01-30T20:13:43.488Z,15.18
2018-01-30T20:16:11.851Z,15.70
2018-01-30T20:18:39.352Z,13.38
2018-01-30T20:21:06.873Z,11.23
2018-01-30T20:23:34.384Z,9.38
2018-01-30T20:26:01.902Z,5.68
2018-01-30T20:28:30.229Z,4.18
2018-01-30T20:30:58.753Z,4.10
2018-01-30T20:33:27.016Z,4.35
2018-01-30T20:35:55.321Z,5.32
2018-01-30T20:38:23.584Z,7.07
2018-01-30T20:40:51.081Z,8.00
2018-01-30T20:43:18.595Z,7.10
2018-01-30T20:45:46.092Z,8.43
2018-01-30T20:48:13.666Z,8.55
2018-01-30T20:50:41.128Z,7.85
2018-01-30T20:53:08.654Z,5.80
2018-01-30T20:55:36.923Z,4.87
2018-01-30T20:58:05.210Z,4.50
2018-01-30T21:00:33.483Z,3.83
2018-01-30T21:03:01.744Z,4.82
2018-01-30T21:05:29.259Z,4.60
2018-01-30T21:07:59.827Z,4.43
2018-01-30T21:10:27.363Z,4.40
2018-01-30T21:12:54.855Z,5.57
2018-01-30T21:15:22.443Z,5.15
2018-01-30T21:17:50.728Z,5.53
2018-01-30T21:20:18.219Z,5.28
2018-01-30T21:22:45.732Z,5.15
2018-01-30T21:25:14.003Z,5.93
2018-01-30T21:27:42.287Z,5.35
2018-01-30T21:30:10.548Z,6.50
2018-01-30T21:32:38.081Z,6.30
2018-01-30T21:35:05.594Z,5.62
2018-01-30T21:37:33.177Z,5.85
2018-01-30T21:40:00.697Z,6.05
2018-01-30T21:42:28.954Z,6.43
2018-01-30T21:44:56.477Z,6.10
2018-01-30T21:47:23.977Z,7.35
2018-01-30T21:49:51.502Z,6.20
2018-01-30T21:52:19.001Z,5.97
2018-01-30T21:54:46.525Z,6.03
2018-01-30T21:57:14.013Z,5.35
2018-01-30T21:59:41.500Z,4.65
2018-01-30T22:02:09.805Z,4.75
2018-01-30T22:04:37.306Z,4.72
2018-01-30T22:07:04.822Z,3.72
2018-01-30T22:09:32.324Z,4.00
2018-01-30T22:11:59.839Z,3.37
2018-01-30T22:14:27.372Z,3.87
2018-01-30T22:16:55.658Z,4.47
2018-01-30T22:19:23.173Z,4.10
2018-01-30T22:21:50.660Z,4.00
2018-01-30T22:24:18.952Z,3.87
2018-01-30T22:26:46.445Z,3.80
2018-01-30T22:29:13.958Z,4.45
2018-01-30T22:31:42.207Z,4.32
2018-01-30T22:34:09.703Z,4.57
2018-01-30T22:36:37.979Z,3.90
2018-01-30T22:39:07.247Z,4.25
2018-01-30T22:41:34.755Z,4.47
2018-01-30T22:44:02.239Z,4.37
2018-01-30T22:46:29.741Z,3.90
